Time;durP1;ratioP1;P1;durP2;ratioP2;P2;SDS_P1;SDS_P2;PMS_P1;PMS_P2;Temp;Humidity;BMP_temperature;BMP_pressure;BME280_temperature;BME280_humidity;BME280_pressure;Samples;Min_cycle;Max_cycle;Signal;HPM_P1;HPM_P2
2023/01/12 00:01:27;;;;;;;3.58;2.10;;;6.20;46.30;;;;;;4965866;28;20035;-73
2023/01/12 00:03:54;;;;;;;3.17;2.13;;;6.20;46.20;;;;;;4976939;28;21411;-73
2023/01/12 00:06:21;;;;;;;3.95;2.13;;;6.20;46.30;;;;;;4978969;28;20037;-73
2023/01/12 00:08:49;;;;;;;3.38;2.08;;;6.30;46.30;;;;;;4982694;28;20401;-74
2023/01/12 00:11:16;;;;;;;3.45;2.20;;;6.20;46.30;;;;;;4980703;28;20165;-73
2023/01/12 00:13:42;;;;;;;2.92;2.00;;;6.20;46.30;;;;;;4983632;28;20031;-73
2023/01/12 00:16:42;;;;;;;3.60;2.60;;;6.30;46.30;;;;;;4980080;28;20046;-74
2023/01/12 00:19:16;;;;;;;3.00;1.88;;;6.20;46.20;;;;;;4980118;28;20034;-74
2023/01/12 00:24:34;;;;;;;5.50;2.00;;;6.20;46.20;;;;;;4980437;28;20038;-74
2023/01/12 00:27:05;;;;;;;3.85;1.75;;;6.20;46.30;;;;;;4969916;28;20097;-73
2023/01/12 00:29:32;;;;;;;3.50;2.38;;;6.20;46.20;;;;;;4977936;28;20172;-72
2023/01/12 00:31:59;;;;;;;3.83;1.95;;;6.20;46.20;;;;;;4979449;28;20041;-73
2023/01/12 00:34:26;;;;;;;2.63;1.52;;;6.20;46.20;;;;;;4981157;28;20043;-73
2023/01/12 00:36:52;;;;;;;3.72;1.83;;;6.20;46.20;;;;;;4980221;28;20736;-72
2023/01/12 00:39:18;;;;;;;3.17;1.92;;;6.20;46.20;;;;;;4981986;28;20035;-73
2023/01/12 00:47:15;;;;;;;3.53;2.07;;;6.30;46.20;;;;;;4980982;28;20344;-74
2023/01/12 00:49:41;;;;;;;3.15;1.60;;;6.20;46.30;;;;;;4980212;28;20537;-73
2023/01/12 00:52:11;;;;;;;4.35;2.13;;;6.20;46.40;;;;;;4982701;28;20121;-72
2023/01/12 00:54:37;;;;;;;4.00;2.15;;;6.20;46.40;;;;;;4982332;28;20452;-72
2023/01/12 00:57:04;;;;;;;3.40;2.10;;;6.30;46.30;;;;;;4982692;28;20101;-73
2023/01/12 00:59:30;;;;;;;3.67;1.85;;;6.30;46.30;;;;;;4981114;28;20030;-73
2023/01/12 01:01:56;;;;;;;2.85;1.83;;;6.30;46.10;;;;;;4980662;28;20042;-74
2023/01/12 01:04:23;;;;;;;2.80;2.00;;;6.30;46.10;;;;;;4981692;28;20576;-73
2023/01/12 01:06:50;;;;;;;3.58;1.98;;;6.30;46.10;;;;;;4980557;28;20038;-74
2023/01/12 01:09:16;;;;;;;3.10;1.80;;;6.30;46.10;;;;;;4979136;28;20577;-72
2023/01/12 01:11:41;;;;;;;4.85;1.98;;;6.30;46.00;;;;;;4981749;28;20041;-73
2023/01/12 01:14:08;;;;;;;4.63;2.13;;;6.30;46.10;;;;;;4982079;28;20497;-73
2023/01/12 01:16:34;;;;;;;3.05;1.80;;;6.30;46.10;;;;;;4980902;28;20030;-73
2023/01/12 01:19:03;;;;;;;3.40;1.92;;;6.30;46.00;;;;;;4980261;28;20133;-73
2023/01/12 01:21:29;;;;;;;3.25;1.90;;;6.30;46.00;;;;;;4962808;28;20034;-74
2023/01/12 01:23:55;;;;;;;2.97;1.90;;;6.30;46.00;;;;;;4980516;28;20042;-72
2023/01/12 01:26:23;;;;;;;4.53;1.77;;;6.30;46.00;;;;;;4981263;28;20486;-73
2023/01/12 01:28:49;;;;;;;2.08;1.80;;;6.30;46.00;;;;;;4979277;28;20034;-73
2023/01/12 01:31:20;;;;;;;3.53;2.28;;;6.30;46.00;;;;;;4980552;28;20378;-73
2023/01/12 01:33:46;;;;;;;3.08;1.98;;;6.30;46.00;;;;;;4979358;28;20045;-73
2023/01/12 01:36:12;;;;;;;3.63;2.00;;;6.20;45.90;;;;;;4981245;28;20041;-73
2023/01/12 01:38:39;;;;;;;4.03;1.90;;;6.30;46.00;;;;;;4978325;28;20042;-73
2023/01/12 01:41:06;;;;;;;5.35;2.17;;;6.30;46.00;;;;;;4969402;28;20053;-73
2023/01/12 01:44:26;;;;;;;3.28;1.90;;;6.20;46.00;;;;;;4980947;28;20533;-73
2023/01/12 01:46:55;;;;;;;3.17;1.80;;;6.30;46.10;;;;;;4920933;29;20068;-73
2023/01/12 01:49:21;;;;;;;4.43;1.98;;;6.30;46.10;;;;;;4978973;28;20031;-73
2023/01/12 01:51:47;;;;;;;4.00;2.08;;;6.30;46.10;;;;;;4969268;28;20041;-73
2023/01/12 01:54:14;;;;;;;2.60;1.85;;;6.30;46.10;;;;;;4979431;28;20057;-72
2023/01/12 01:56:40;;;;;;;2.83;2.00;;;6.30;46.10;;;;;;4981952;28;20065;-73
2023/01/12 01:59:18;;;;;;;3.92;1.90;;;6.30;46.20;;;;;;4981884;28;20062;-73
2023/01/12 02:01:44;;;;;;;3.58;2.03;;;6.30;46.20;;;;;;4970110;28;20046;-74
2023/01/12 02:04:11;;;;;;;2.92;2.20;;;6.30;46.10;;;;;;4979125;28;20045;-73
2023/01/12 02:06:37;;;;;;;4.50;1.98;;;6.30;46.10;;;;;;4981849;28;20045;-74
2023/01/12 02:09:13;;;;;;;2.83;1.88;;;6.30;46.10;;;;;;4979811;28;20513;-74
2023/01/12 02:17:34;;;;;;;3.38;2.00;;;6.30;46.00;;;;;;4968527;28;20042;-74
2023/01/12 02:20:12;;;;;;;3.65;1.73;;;6.30;46.00;;;;;;4969784;28;20034;-74
2023/01/12 02:23:00;;;;;;;2.50;2.13;;;6.30;46.10;;;;;;4979087;28;20371;-72
2023/01/12 02:25:44;;;;;;;5.80;2.20;;;6.30;46.10;;;;;;4978267;28;20133;-73
2023/01/12 02:28:31;;;;;;;3.22;1.80;;;6.30;46.20;;;;;;4979550;28;20050;-73
2023/01/12 02:31:22;;;;;;;3.20;1.90;;;6.30;46.10;;;;;;4978086;28;20736;-74
2023/01/12 02:33:58;;;;;;;4.25;2.05;;;6.20;46.00;;;;;;4978810;28;20521;-72
2023/01/12 02:36:51;;;;;;;2.53;2.00;;;6.30;46.20;;;;;;4981642;28;20066;-73
2023/01/12 02:39:27;;;;;;;3.10;2.00;;;6.20;46.10;;;;;;4976340;28;20057;-73
2023/01/12 02:45:44;;;;;;;1.95;1.60;;;6.20;46.20;;;;;;4979643;28;20855;-73
2023/01/12 02:48:20;;;;;;;3.28;2.05;;;6.20;46.20;;;;;;4977220;28;20477;-73
2023/01/12 02:51:14;;;;;;;3.97;1.58;;;6.20;46.10;;;;;;4978212;28;20030;-73
2023/01/12 02:53:51;;;;;;;3.40;1.50;;;6.30;46.20;;;;;;4978505;28;20058;-73
2023/01/12 02:56:45;;;;;;;2.85;1.90;;;6.30;46.10;;;;;;4979766;28;20034;-70
2023/01/12 02:59:30;;;;;;;2.60;1.83;;;6.30;46.10;;;;;;4960886;28;20536;-73
2023/01/12 03:02:09;;;;;;;4.20;1.95;;;6.20;46.00;;;;;;4952276;28;20465;-73
2023/01/12 03:04:35;;;;;;;2.30;1.63;;;6.30;46.10;;;;;;4978266;28;20043;-73
2023/01/12 03:07:01;;;;;;;4.13;2.17;;;6.30;46.20;;;;;;4977771;28;20039;-73
2023/01/12 03:09:42;;;;;;;2.60;1.98;;;6.30;46.10;;;;;;4977895;28;20126;-74
2023/01/12 03:12:15;;;;;;;3.15;2.10;;;6.30;46.10;;;;;;4979061;28;20030;-73
2023/01/12 03:14:45;;;;;;;3.08;1.77;;;6.30;46.10;;;;;;4978612;28;20034;-74
2023/01/12 03:17:20;;;;;;;2.00;1.58;;;6.30;46.00;;;;;;4951749;28;20410;-73
2023/01/12 03:19:48;;;;;;;2.50;1.88;;;6.30;45.90;;;;;;4980088;28;20038;-74
2023/01/12 03:22:15;;;;;;;2.58;1.70;;;6.30;45.90;;;;;;4984648;28;20042;-73
2023/01/12 03:24:57;;;;;;;2.53;1.92;;;6.30;45.90;;;;;;4979657;28;20117;-79
2023/01/12 03:27:31;;;;;;;2.95;1.90;;;6.30;45.90;;;;;;4982517;28;20106;-82
2023/01/12 03:30:05;;;;;;;4.10;2.00;;;6.30;45.90;;;;;;4965877;28;20154;-80
2023/01/12 03:32:32;;;;;;;3.47;2.03;;;6.30;46.00;;;;;;4975939;28;20974;-77
2023/01/12 03:34:58;;;;;;;1.83;1.65;;;6.20;46.00;;;;;;4978206;28;20033;-78
2023/01/12 03:37:36;;;;;;;2.95;1.90;;;6.30;46.10;;;;;;4961012;28;20510;-77
2023/01/12 03:40:05;;;;;;;7.40;2.20;;;6.20;46.20;;;;;;4978683;28;20367;-80
2023/01/12 03:42:50;;;;;;;3.38;1.92;;;6.20;46.20;;;;;;4967114;28;20428;-78
2023/01/12 03:45:31;;;;;;;2.97;2.00;;;6.20;46.30;;;;;;4981007;28;20068;-78
2023/01/12 03:48:14;;;;;;;2.92;2.15;;;6.20;46.30;;;;;;4983183;28;20035;-78
2023/01/12 03:51:13;;;;;;;2.60;2.00;;;6.20;46.40;;;;;;4983006;28;20556;-78
2023/01/12 03:53:41;;;;;;;4.82;2.05;;;6.20;46.40;;;;;;4954610;28;20053;-79
2023/01/12 03:56:09;;;;;;;3.22;2.00;;;6.30;46.40;;;;;;4983040;28;20026;-80
2023/01/12 03:58:36;;;;;;;3.35;2.03;;;6.30;46.30;;;;;;4983144;28;20035;-79
2023/01/12 04:01:03;;;;;;;2.63;1.65;;;6.30;46.30;;;;;;4972898;28;20433;-77
2023/01/12 04:03:29;;;;;;;2.83;1.90;;;6.30;46.10;;;;;;4982536;28;20034;-77
2023/01/12 04:05:55;;;;;;;4.30;2.13;;;6.30;46.80;;;;;;4969344;28;20039;-79
2023/01/12 04:08:22;;;;;;;3.35;2.20;;;6.30;46.20;;;;;;4970400;28;20403;-79
2023/01/12 04:10:48;;;;;;;3.60;1.80;;;6.30;46.10;;;;;;4974349;28;20424;-81
2023/01/12 04:13:14;;;;;;;2.75;1.95;;;6.30;46.10;;;;;;4982612;28;20448;-78
2023/01/12 04:15:42;;;;;;;4.93;2.38;;;6.30;46.00;;;;;;4981502;28;20050;-83
2023/01/12 04:18:10;;;;;;;3.20;2.00;;;6.30;46.10;;;;;;4981635;28;20061;-79
2023/01/12 04:20:36;;;;;;;5.30;2.10;;;6.30;46.10;;;;;;4962613;28;20030;-76
2023/01/12 04:23:02;;;;;;;4.15;2.13;;;6.30;46.20;;;;;;4980386;28;20039;-79
2023/01/12 04:25:28;;;;;;;3.97;2.05;;;6.30;46.20;;;;;;4979173;28;20081;-78
2023/01/12 04:28:00;;;;;;;2.85;1.75;;;6.30;46.10;;;;;;4978942;28;20047;-77
2023/01/12 04:30:27;;;;;;;4.00;2.30;;;6.30;46.10;;;;;;4974876;28;20077;-78
2023/01/12 04:32:54;;;;;;;3.65;2.00;;;6.30;46.10;;;;;;4969303;28;20038;-79
2023/01/12 04:35:21;;;;;;;5.07;2.33;;;6.20;46.00;;;;;;4981792;28;20089;-80
2023/01/12 04:37:47;;;;;;;4.10;1.95;;;6.20;46.00;;;;;;4969696;28;20038;-77
2023/01/12 04:40:15;;;;;;;4.30;2.00;;;6.30;46.00;;;;;;4962130;28;20042;-79
2023/01/12 04:43:05;;;;;;;2.85;2.10;;;6.30;46.10;;;;;;4983242;28;20436;-77
2023/01/12 04:45:39;;;;;;;5.10;2.20;;;6.20;46.20;;;;;;4991617;28;20041;-79
2023/01/12 04:48:10;;;;;;;3.92;2.13;;;6.20;46.30;;;;;;4989557;28;20153;-78
2023/01/12 04:50:37;;;;;;;3.88;2.28;;;6.30;46.50;;;;;;4988419;28;20041;-78
2023/01/12 04:53:05;;;;;;;3.03;2.05;;;6.30;46.60;;;;;;4971886;28;20053;-81
2023/01/12 04:55:34;;;;;;;3.17;2.42;;;6.30;46.70;;;;;;4988845;28;20405;-76
2023/01/12 04:58:00;;;;;;;3.80;2.10;;;6.30;46.80;;;;;;4979496;28;20042;-76
2023/01/12 05:00:26;;;;;;;3.45;2.10;;;6.30;46.70;;;;;;4981610;28;20112;-77
2023/01/12 05:03:01;;;;;;;4.65;2.60;;;6.30;46.80;;;;;;4967983;28;20054;-77
2023/01/12 05:05:32;;;;;;;2.92;2.28;;;6.30;46.90;;;;;;4979820;28;20026;-77
2023/01/12 05:10:52;;;;;;;4.70;2.58;;;6.30;47.10;;;;;;4979884;28;20035;-76
2023/01/12 05:13:18;;;;;;;3.42;2.13;;;6.30;47.10;;;;;;4978577;28;20042;-77
2023/01/12 05:15:44;;;;;;;3.92;2.70;;;6.30;47.00;;;;;;4980701;28;20086;-77
2023/01/12 05:18:10;;;;;;;3.95;2.78;;;6.30;47.00;;;;;;4980085;28;20128;-77
2023/01/12 05:20:36;;;;;;;6.05;2.95;;;6.30;47.00;;;;;;4976084;28;20042;-76
2023/01/12 05:23:02;;;;;;;5.72;2.67;;;6.30;46.90;;;;;;4980315;28;20038;-77
2023/01/12 05:25:30;;;;;;;5.30;2.75;;;6.30;46.90;;;;;;4979632;28;20687;-77
2023/01/12 05:27:56;;;;;;;5.45;3.17;;;6.30;46.80;;;;;;4979391;28;20418;-77
2023/01/12 05:30:23;;;;;;;3.83;2.50;;;6.30;46.60;;;;;;4980696;28;20504;-77
2023/01/12 05:32:49;;;;;;;5.28;2.90;;;6.30;46.60;;;;;;4980366;28;20481;-77
2023/01/12 05:35:15;;;;;;;4.50;2.38;;;6.30;46.50;;;;;;4981813;28;20037;-77
2023/01/12 05:37:41;;;;;;;6.82;2.97;;;6.30;46.60;;;;;;4968498;28;20042;-77
2023/01/12 05:40:08;;;;;;;5.85;2.42;;;6.30;46.50;;;;;;4969116;28;20053;-77
2023/01/12 05:45:18;;;;;;;4.55;2.80;;;6.30;46.70;;;;;;4978563;28;20030;-77
2023/01/12 05:47:44;;;;;;;4.72;2.38;;;6.30;46.60;;;;;;4977565;28;20034;-80
2023/01/12 05:50:10;;;;;;;3.50;2.45;;;6.30;46.50;;;;;;4980114;28;20505;-76
2023/01/12 05:52:36;;;;;;;3.25;2.13;;;6.30;46.50;;;;;;4978848;28;21398;-79
2023/01/12 05:55:03;;;;;;;5.15;2.63;;;6.30;46.50;;;;;;4978747;28;20178;-72
2023/01/12 05:57:29;;;;;;;4.00;2.35;;;6.30;46.40;;;;;;4968306;28;20762;-72
2023/01/12 05:59:56;;;;;;;5.15;2.65;;;6.40;52.80;;;;;;4979218;28;20069;-75
2023/01/12 06:02:22;;;;;;;3.47;2.00;;;6.50;57.00;;;;;;4977865;28;20049;-78
2023/01/12 06:04:47;;;;;;;6.72;2.30;;;6.60;60.00;;;;;;4980141;28;20501;-78
2023/01/12 06:07:15;;;;;;;6.10;2.83;;;6.60;57.70;;;;;;4979099;28;20073;-77
2023/01/12 06:09:41;;;;;;;5.85;2.70;;;6.70;56.50;;;;;;4978829;28;20100;-77
2023/01/12 06:14:55;;;;;;;4.13;2.65;;;6.90;54.50;;;;;;4980621;28;20054;-77
2023/01/12 06:17:21;;;;;;;3.60;2.22;;;6.90;53.80;;;;;;4979921;28;20057;-76
2023/01/12 06:19:47;;;;;;;4.97;2.42;;;6.90;53.30;;;;;;4978388;28;20040;-78
2023/01/12 06:22:13;;;;;;;4.85;2.72;;;7.00;53.00;;;;;;4978140;28;20539;-78
2023/01/12 06:24:39;;;;;;;3.88;2.50;;;7.00;52.80;;;;;;4978161;28;20034;-78
2023/01/12 06:27:05;;;;;;;4.18;2.70;;;7.00;52.60;;;;;;4978330;28;20069;-78
2023/01/12 06:29:31;;;;;;;5.90;2.55;;;7.00;52.60;;;;;;4979862;28;20069;-77
2023/01/12 06:31:57;;;;;;;4.30;2.35;;;7.10;52.40;;;;;;4977024;28;20216;-77
2023/01/12 06:34:23;;;;;;;5.70;2.55;;;7.10;52.50;;;;;;4978431;28;20495;-78
2023/01/12 06:36:49;;;;;;;3.83;2.60;;;7.10;52.50;;;;;;4978251;28;20039;-76
2023/01/12 06:39:15;;;;;;;5.13;2.78;;;7.10;52.50;;;;;;4979659;28;20073;-79
2023/01/12 06:44:25;;;;;;;4.88;2.53;;;7.10;52.20;;;;;;4975622;28;20038;-78
2023/01/12 06:46:51;;;;;;;5.30;2.78;;;7.20;52.30;;;;;;4978105;28;20046;-78
2023/01/12 06:49:18;;;;;;;3.95;2.50;;;7.20;52.40;;;;;;4978895;28;20038;-79
2023/01/12 06:51:47;;;;;;;5.32;2.75;;;7.20;52.40;;;;;;4978768;28;20413;-76
2023/01/12 06:54:13;;;;;;;5.55;2.60;;;7.20;52.50;;;;;;4966522;28;20113;-78
2023/01/12 06:56:39;;;;;;;3.92;2.42;;;7.20;52.50;;;;;;4976734;28;20141;-79
2023/01/12 06:59:05;;;;;;;3.60;2.78;;;7.20;53.10;;;;;;4977686;28;20038;-78
2023/01/12 07:01:31;;;;;;;5.45;2.70;;;7.20;52.60;;;;;;4975738;28;20046;-77
2023/01/12 07:03:57;;;;;;;5.53;2.58;;;7.20;52.60;;;;;;4977574;28;20514;-78
2023/01/12 07:06:22;;;;;;;4.18;2.50;;;7.30;52.50;;;;;;4965960;28;20034;-79
2023/01/12 07:08:48;;;;;;;4.25;2.50;;;7.30;52.30;;;;;;4977734;28;20192;-76
2023/01/12 07:11:15;;;;;;;3.53;2.50;;;7.30;52.30;;;;;;4976940;28;20076;-80
2023/01/12 07:13:41;;;;;;;5.68;2.80;;;7.30;52.50;;;;;;4979614;28;20034;-78
2023/01/12 07:16:08;;;;;;;3.58;2.22;;;7.30;52.40;;;;;;4977591;28;20552;-79
2023/01/12 07:18:34;;;;;;;3.33;2.35;;;7.30;52.50;;;;;;4976951;28;20042;-78
2023/01/12 07:21:04;;;;;;;4.10;2.50;;;7.30;52.50;;;;;;4978165;28;20043;-79
2023/01/12 07:23:30;;;;;;;4.88;2.70;;;7.30;52.50;;;;;;4969365;28;20604;-79
2023/01/12 07:25:56;;;;;;;7.13;3.00;;;7.30;52.50;;;;;;4978042;28;21043;-79
2023/01/12 07:28:23;;;;;;;5.82;3.00;;;7.40;52.50;;;;;;4977343;28;20038;-80
2023/01/12 07:30:48;;;;;;;4.75;3.08;;;7.40;52.40;;;;;;4973184;28;20436;-79
2023/01/12 07:33:16;;;;;;;5.78;2.90;;;7.40;52.20;;;;;;4972989;28;20041;-80
2023/01/12 07:35:42;;;;;;;4.78;2.95;;;7.40;51.80;;;;;;4947400;28;20448;-80
2023/01/12 07:38:09;;;;;;;6.82;3.10;;;7.30;50.70;;;;;;4971799;28;20128;-79
2023/01/12 07:40:35;;;;;;;6.10;3.10;;;7.40;50.10;;;;;;4976347;28;20089;-79
2023/01/12 07:43:04;;;;;;;5.38;3.35;;;7.30;49.30;;;;;;4975585;28;20054;-78
2023/01/12 07:45:31;;;;;;;6.18;3.30;;;7.30;48.80;;;;;;4974321;28;20159;-78
2023/01/12 07:47:57;;;;;;;5.72;3.30;;;7.30;48.50;;;;;;4975877;28;20394;-80
2023/01/12 07:50:25;;;;;;;6.03;3.17;;;7.30;48.30;;;;;;4975410;28;20035;-80
2023/01/12 07:52:51;;;;;;;6.75;3.35;;;7.30;48.00;;;;;;4973465;28;20110;-79
2023/01/12 07:55:18;;;;;;;5.35;3.35;;;7.20;47.70;;;;;;4972486;28;20059;-79
2023/01/12 07:57:53;;;;;;;5.72;3.28;;;7.20;48.20;;;;;;4974884;28;20185;-80
2023/01/12 08:00:22;;;;;;;5.47;2.97;;;7.20;48.10;;;;;;4976114;28;20138;-80
2023/01/12 08:02:49;;;;;;;6.22;3.10;;;7.20;47.40;;;;;;4974696;28;20045;-79
2023/01/12 08:05:16;;;;;;;6.20;2.95;;;7.20;47.20;;;;;;4975035;28;20520;-80
2023/01/12 08:07:42;;;;;;;6.15;3.00;;;7.20;47.00;;;;;;4975060;28;20425;-79
2023/01/12 08:10:10;;;;;;;4.68;3.05;;;7.20;46.90;;;;;;4973702;28;20034;-77
2023/01/12 08:12:36;;;;;;;6.25;3.20;;;7.10;46.70;;;;;;4975247;28;20042;-77
2023/01/12 08:15:03;;;;;;;7.20;3.22;;;7.10;46.60;;;;;;4973612;28;20043;-77
2023/01/12 08:17:35;;;;;;;5.13;3.22;;;7.10;46.50;;;;;;4975707;28;20145;-76
2023/01/12 08:20:17;;;;;;;5.80;2.90;;;7.10;46.40;;;;;;4957450;28;20042;-77
2023/01/12 08:22:46;;;;;;;7.78;3.47;;;7.10;46.50;;;;;;4964110;28;20069;-76
2023/01/12 08:25:17;;;;;;;8.35;3.10;;;7.00;46.60;;;;;;4972377;28;20034;-75
2023/01/12 08:27:48;;;;;;;8.20;3.22;;;7.00;46.50;;;;;;4975236;28;20039;-76
2023/01/12 08:30:16;;;;;;;6.35;3.50;;;7.00;46.40;;;;;;4977718;28;20041;-77
2023/01/12 08:32:42;;;;;;;5.57;3.70;;;6.90;46.20;;;;;;4977087;28;20050;-77
2023/01/12 08:35:11;;;;;;;8.20;3.95;;;6.90;46.00;;;;;;4968710;28;20026;-77
2023/01/12 08:37:36;;;;;;;5.15;3.50;;;6.90;46.00;;;;;;4977923;28;20057;-77
2023/01/12 08:40:04;;;;;;;5.40;3.28;;;6.90;45.90;;;;;;4974940;28;20054;-77
2023/01/12 08:42:30;;;;;;;6.13;3.10;;;6.80;45.90;;;;;;4977610;28;20412;-77
2023/01/12 08:44:56;;;;;;;6.47;3.33;;;6.90;46.00;;;;;;4974334;28;20045;-77
2023/01/12 08:47:29;;;;;;;4.72;3.47;;;6.80;46.10;;;;;;4977940;28;20049;-75
2023/01/12 08:49:58;;;;;;;6.22;3.05;;;6.80;46.20;;;;;;4979084;28;20046;-76
2023/01/12 08:52:24;;;;;;;5.18;3.63;;;6.80;46.10;;;;;;4977631;28;20446;-77
2023/01/12 08:54:50;;;;;;;7.35;3.20;;;6.80;45.90;;;;;;4975558;28;20417;-76
2023/01/12 08:57:18;;;;;;;6.07;3.97;;;6.80;45.90;;;;;;4977169;28;20038;-76
2023/01/12 08:59:44;;;;;;;6.68;3.85;;;6.80;46.00;;;;;;4978068;28;20034;-75
2023/01/12 09:02:11;;;;;;;7.38;4.20;;;6.80;45.80;;;;;;4975925;28;20038;-76
2023/01/12 09:04:39;;;;;;;5.80;3.50;;;6.70;45.70;;;;;;4977883;28;20034;-77
2023/01/12 09:07:09;;;;;;;7.30;4.22;;;6.70;45.60;;;;;;4976968;28;20417;-76
2023/01/12 09:09:35;;;;;;;7.60;3.85;;;6.70;45.60;;;;;;4964467;28;20038;-77
2023/01/12 09:12:02;;;;;;;6.55;3.70;;;6.70;45.50;;;;;;4975476;28;20035;-79
2023/01/12 09:14:28;;;;;;;10.32;3.85;;;6.70;45.40;;;;;;4976013;28;20349;-77
2023/01/12 09:16:55;;;;;;;6.22;3.60;;;6.60;45.30;;;;;;4976085;28;20061;-78
2023/01/12 09:19:22;;;;;;;7.35;3.88;;;6.60;45.20;;;;;;4975837;28;20069;-78
2023/01/12 09:21:48;;;;;;;6.07;4.00;;;6.60;45.20;;;;;;4975388;28;20466;-78
2023/01/12 09:24:14;;;;;;;7.22;3.50;;;6.60;45.20;;;;;;4974251;28;20126;-77
2023/01/12 09:26:42;;;;;;;10.93;4.57;;;6.50;45.20;;;;;;4976993;28;20050;-77
2023/01/12 09:29:10;;;;;;;9.40;3.95;;;6.50;45.20;;;;;;4975619;28;20493;-77
2023/01/12 09:31:38;;;;;;;6.25;3.78;;;6.50;45.30;;;;;;4965063;28;20528;-79
2023/01/12 09:34:04;;;;;;;8.10;3.58;;;6.50;45.40;;;;;;4974838;28;20039;-78
2023/01/12 09:36:33;;;;;;;6.95;4.10;;;6.50;45.50;;;;;;4975334;28;20042;-76
2023/01/12 09:39:00;;;;;;;8.80;4.38;;;6.50;45.60;;;;;;4974862;28;20047;-78
2023/01/12 09:47:15;;;;;;;7.68;3.58;;;6.50;45.30;;;;;;4959761;28;20543;-78
2023/01/12 09:49:46;;;;;;;9.02;4.00;;;6.50;45.20;;;;;;4977669;28;20518;-78
2023/01/12 09:52:24;;;;;;;7.25;3.78;;;6.50;45.20;;;;;;4977628;28;20045;-77
2023/01/12 09:54:51;;;;;;;9.75;4.07;;;6.40;45.10;;;;;;4976880;28;20182;-78
2023/01/12 09:57:52;;;;;;;5.55;3.58;;;6.40;45.20;;;;;;4975237;28;20035;-77
2023/01/12 10:00:19;;;;;;;8.18;4.20;;;6.40;45.20;;;;;;4976856;28;20046;-76
2023/01/12 10:03:06;;;;;;;9.95;3.60;;;6.40;45.10;;;;;;4977580;28;20050;-75
2023/01/12 10:05:47;;;;;;;7.97;3.97;;;6.40;45.70;;;;;;4977174;28;20162;-78
2023/01/12 10:08:34;;;;;;;7.78;4.10;;;6.40;47.20;;;;;;4972220;28;20070;-75
2023/01/12 10:11:16;;;;;;;9.00;3.72;;;6.40;48.30;;;;;;4977509;28;20109;-77
2023/01/12 10:13:47;;;;;;;6.05;3.50;;;6.50;49.20;;;;;;4975251;28;20047;-78
2023/01/12 10:16:26;;;;;;;8.32;3.00;;;6.50;49.70;;;;;;4973765;28;20043;-75
2023/01/12 10:18:58;;;;;;;6.78;3.10;;;6.50;50.00;;;;;;4963743;28;20046;-78
2023/01/12 10:21:25;;;;;;;11.77;3.40;;;6.50;50.30;;;;;;4977104;28;20049;-77
2023/01/12 10:23:53;;;;;;;7.53;4.00;;;6.50;50.50;;;;;;4964167;28;20513;-78
2023/01/12 10:26:19;;;;;;;10.02;3.17;;;6.50;50.60;;;;;;4975666;28;20062;-77
2023/01/12 10:28:47;;;;;;;5.10;3.17;;;6.50;50.70;;;;;;4974782;28;20615;-76
2023/01/12 10:31:18;;;;;;;8.30;3.33;;;6.60;51.00;;;;;;4962489;28;20035;-76
2023/01/12 10:34:02;;;;;;;8.93;3.60;;;6.60;51.00;;;;;;4975910;28;20106;-77
2023/01/12 10:36:29;;;;;;;8.43;3.75;;;6.60;51.00;;;;;;4948737;28;20045;-77
2023/01/12 10:39:02;;;;;;;7.03;4.10;;;6.70;51.40;;;;;;4974209;28;20050;-77
2023/01/12 10:41:37;;;;;;;6.85;3.70;;;6.60;51.40;;;;;;4962071;28;20485;-77
2023/01/12 10:44:13;;;;;;;7.53;3.67;;;6.60;51.60;;;;;;4975843;28;20042;-77
2023/01/12 10:46:39;;;;;;;6.93;3.70;;;6.70;51.90;;;;;;4965294;28;20042;-77
2023/01/12 10:49:22;;;;;;;6.03;3.17;;;6.60;52.20;;;;;;4974466;28;20042;-77
2023/01/12 10:52:00;;;;;;;5.43;2.92;;;6.70;52.20;;;;;;4975386;28;20065;-77
2023/01/12 10:54:27;;;;;;;5.88;2.78;;;6.70;52.10;;;;;;4965442;28;20042;-76
2023/01/12 10:57:04;;;;;;;8.90;3.47;;;6.70;52.00;;;;;;4957338;28;20054;-77
2023/01/12 10:59:38;;;;;;;10.13;3.30;;;6.70;51.90;;;;;;4949069;28;20666;-76
2023/01/12 11:02:05;;;;;;;6.87;3.47;;;6.70;52.10;;;;;;4959430;28;20054;-77
2023/01/12 11:04:38;;;;;;;6.10;2.88;;;6.70;52.20;;;;;;4975755;28;20039;-77
2023/01/12 11:07:46;;;;;;;9.90;3.00;;;6.70;52.00;;;;;;4976356;28;20031;-78
2023/01/12 11:10:25;;;;;;;8.75;3.50;;;6.70;51.90;;;;;;4967317;28;20027;-77
2023/01/12 11:13:02;;;;;;;7.40;3.13;;;6.70;51.90;;;;;;4948100;28;20100;-77
2023/01/12 11:15:29;;;;;;;4.53;2.97;;;6.70;52.10;;;;;;4973889;28;20141;-76
2023/01/12 11:18:01;;;;;;;6.82;2.88;;;6.70;52.00;;;;;;4972483;28;20070;-78
2023/01/12 11:20:39;;;;;;;6.57;3.40;;;6.70;52.20;;;;;;4971960;28;20049;-78
2023/01/12 11:23:13;;;;;;;6.13;2.97;;;6.70;52.30;;;;;;4975728;28;20058;-78
2023/01/12 11:25:44;;;;;;;7.38;2.92;;;6.70;52.20;;;;;;4975205;28;20489;-77
2023/01/12 11:28:16;;;;;;;7.63;2.85;;;6.70;52.10;;;;;;4963207;28;21467;-75
2023/01/12 11:31:05;;;;;;;6.55;3.00;;;6.70;51.90;;;;;;4965128;28;20039;-78
2023/01/12 11:33:53;;;;;;;7.57;3.05;;;6.70;51.90;;;;;;4975221;28;20605;-78
2023/01/12 11:36:54;;;;;;;9.07;3.50;;;6.80;51.80;;;;;;4972456;28;20314;-78
2023/01/12 11:39:24;;;;;;;4.65;2.72;;;6.70;51.60;;;;;;4960833;28;20560;-77
2023/01/12 11:44:56;;;;;;;6.50;2.80;;;6.70;51.60;;;;;;4975976;28;20497;-78
2023/01/12 11:47:30;;;;;;;7.15;2.50;;;6.70;51.80;;;;;;4975594;28;20030;-78
2023/01/12 11:50:23;;;;;;;9.65;2.88;;;6.70;52.10;;;;;;4974875;28;20042;-77
2023/01/12 11:52:50;;;;;;;5.88;2.50;;;6.70;52.20;;;;;;4974166;28;20703;-76
2023/01/12 11:55:28;;;;;;;6.10;3.00;;;6.70;52.20;;;;;;4975565;28;20533;-77
2023/01/12 11:58:03;;;;;;;5.53;2.55;;;6.70;52.20;;;;;;4972464;28;20043;-78
2023/01/12 12:00:32;;;;;;;7.20;2.83;;;6.70;52.10;;;;;;4971869;28;20241;-76
2023/01/12 12:03:24;;;;;;;5.25;2.78;;;6.70;52.10;;;;;;4976440;28;20067;-78
2023/01/12 12:05:53;;;;;;;6.13;3.08;;;6.70;52.20;;;;;;4979082;28;20038;-74
2023/01/12 12:08:38;;;;;;;8.40;2.97;;;6.70;52.20;;;;;;4980266;28;20413;-78
2023/01/12 12:11:13;;;;;;;7.68;3.08;;;6.70;52.10;;;;;;4979320;28;20581;-76
2023/01/12 12:14:11;;;;;;;6.93;2.70;;;6.70;52.00;;;;;;4980384;28;20042;-81
2023/01/12 12:17:06;;;;;;;7.10;2.53;;;6.70;52.10;;;;;;4978807;28;20039;-76
2023/01/12 12:19:55;;;;;;;5.68;2.92;;;6.70;52.10;;;;;;4977613;28;20031;-75
2023/01/12 12:22:53;;;;;;;3.60;2.50;;;6.70;52.10;;;;;;4979896;28;20410;-76
2023/01/12 12:25:45;;;;;;;8.50;3.00;;;6.60;52.00;;;;;;4983156;28;20429;-76
2023/01/12 12:28:26;;;;;;;5.38;2.60;;;6.60;52.00;;;;;;4986570;28;20046;-77
2023/01/12 12:31:12;;;;;;;9.52;3.15;;;6.60;52.10;;;;;;4990453;28;20120;-76
2023/01/12 12:34:06;;;;;;;5.40;3.17;;;6.60;52.00;;;;;;4977868;28;20035;-77
2023/01/12 12:36:45;;;;;;;4.78;2.80;;;6.60;52.00;;;;;;4978411;28;20459;-76
2023/01/12 12:39:39;;;;;;;3.70;2.30;;;6.60;52.00;;;;;;4977804;28;20046;-76
2023/01/12 12:45:15;;;;;;;8.80;3.58;;;6.60;52.00;;;;;;4983466;28;20089;-76
2023/01/12 12:47:59;;;;;;;5.25;3.13;;;6.60;52.10;;;;;;4977526;28;20391;-77
2023/01/12 12:51:03;;;;;;;6.72;2.97;;;6.50;52.20;;;;;;4969157;28;20133;-75
2023/01/12 12:53:45;;;;;;;6.97;3.03;;;6.50;52.30;;;;;;4981668;28;20668;-78
2023/01/12 12:56:16;;;;;;;5.00;2.65;;;6.50;52.40;;;;;;4990950;28;20136;-74
2023/01/12 12:58:47;;;;;;;5.40;3.05;;;6.50;52.50;;;;;;4979769;28;20162;-80
2023/01/12 13:01:34;;;;;;;6.78;2.95;;;6.50;52.60;;;;;;4973881;28;20078;-76
2023/01/12 13:04:01;;;;;;;4.80;2.70;;;6.50;52.80;;;;;;4984053;28;20034;-77
2023/01/12 13:06:33;;;;;;;6.97;2.88;;;6.50;52.90;;;;;;4973928;28;20463;-78
2023/01/12 13:09:00;;;;;;;7.28;2.70;;;6.50;52.90;;;;;;4956637;28;20050;-77
2023/01/12 13:11:52;;;;;;;4.03;2.70;;;6.40;52.90;;;;;;4990924;28;20419;-78
2023/01/12 13:14:34;;;;;;;5.30;2.50;;;6.50;53.10;;;;;;4969839;28;20050;-86
2023/01/12 13:17:20;;;;;;;6.05;2.60;;;6.40;53.10;;;;;;4992095;28;20042;-82
2023/01/12 13:19:48;;;;;;;6.90;3.38;;;6.40;53.10;;;;;;4983693;28;20089;-82
2023/01/12 13:22:49;;;;;;;7.28;3.20;;;6.40;53.10;;;;;;4974186;28;20093;-78
2023/01/12 13:25:15;;;;;;;6.78;2.97;;;6.40;53.20;;;;;;4974296;28;20133;-78
2023/01/12 13:30:52;;;;;;;8.05;2.80;;;6.40;53.20;;;;;;4960657;28;20513;-78
2023/01/12 13:33:26;;;;;;;10.65;3.10;;;6.40;53.40;;;;;;4959384;28;20510;-80
2023/01/12 13:35:52;;;;;;;10.25;3.20;;;6.40;53.70;;;;;;4962807;28;20035;-80
2023/01/12 13:38:42;;;;;;;8.93;3.00;;;6.30;53.60;;;;;;4958212;28;20035;-80
2023/01/12 13:41:16;;;;;;;5.43;2.58;;;6.40;53.50;;;;;;4958375;28;20046;-81
2023/01/12 13:43:51;;;;;;;4.88;2.47;;;6.40;53.50;;;;;;4957784;28;20039;-81
2023/01/12 13:46:23;;;;;;;4.13;2.72;;;6.30;53.50;;;;;;4959076;28;20394;-81
2023/01/12 13:48:52;;;;;;;6.88;2.70;;;6.30;53.50;;;;;;4959301;28;20038;-81
2023/01/12 13:51:48;;;;;;;6.38;2.97;;;6.30;53.60;;;;;;4960188;28;20042;-81
2023/01/12 13:54:15;;;;;;;8.45;2.97;;;6.30;53.50;;;;;;4942600;28;20039;-80
2023/01/12 13:56:42;;;;;;;8.10;3.13;;;6.30;53.50;;;;;;4973853;28;20050;-81
2023/01/12 13:59:17;;;;;;;5.28;2.90;;;6.30;53.60;;;;;;4960127;28;20093;-81
2023/01/12 14:01:46;;;;;;;5.70;2.67;;;6.30;53.60;;;;;;4981692;28;20042;-81
2023/01/12 14:04:20;;;;;;;7.38;3.00;;;6.30;54.10;;;;;;4964958;28;20680;-81
2023/01/12 14:07:08;;;;;;;6.30;2.60;;;6.20;53.00;;;;;;4940405;28;20059;-77